createdAt,value
2022-09-15T00:00:30.411Z,49717.03
2022-09-15T00:02:57.114Z,49727.00
2022-09-15T00:05:23.946Z,49715.03
2022-09-15T00:07:50.584Z,49697.09
2022-09-15T00:10:17.703Z,49729.00
2022-09-15T00:12:44.872Z,49733.00
2022-09-15T00:15:14.700Z,49719.03
2022-09-15T00:17:43.106Z,49731.00
2022-09-15T00:20:10.654Z,49715.03
2022-09-15T00:22:37.438Z,49731.00
2022-09-15T00:25:05.400Z,49721.03
2022-09-15T00:27:32.555Z,49717.03
2022-09-15T00:29:59.420Z,49738.97
2022-09-15T00:32:26.109Z,49715.03
2022-09-15T00:34:53.580Z,49705.06
2022-09-15T00:37:20.762Z,49727.00
2022-09-15T00:39:47.839Z,49736.97
2022-09-15T00:42:16.893Z,49723.03
2022-09-15T00:44:46.556Z,49725.00
2022-09-15T00:47:19.643Z,49715.03
2022-09-15T00:49:49.446Z,49719.03
2022-09-15T00:52:22.590Z,49729.00
2022-09-15T00:55:30.849Z,49734.97
2022-09-15T00:58:00.346Z,49729.00
2022-09-15T01:00:28.742Z,49707.06
2022-09-15T01:02:56.970Z,49675.19
2022-09-15T01:05:28.072Z,49717.03
2022-09-15T01:08:02.044Z,49677.16
2022-09-15T01:10:31.730Z,49709.06
2022-09-15T01:13:01.447Z,49734.97
2022-09-15T01:15:51.117Z,49719.03
2022-09-15T01:18:26.477Z,49703.09
2022-09-15T01:21:05.273Z,49695.09
2022-09-15T01:24:01.285Z,49679.16
2022-09-15T01:26:30.834Z,49754.91
2022-09-15T01:29:25.319Z,49715.03
2022-09-15T01:32:21.792Z,49703.09
2022-09-15T01:35:14.302Z,49742.94
2022-09-15T01:37:48.390Z,49746.94
2022-09-15T01:40:17.454Z,49713.06
2022-09-15T01:42:46.345Z,49731.00
2022-09-15T01:45:25.369Z,49683.16
2022-09-15T01:47:57.596Z,49721.03
2022-09-15T01:50:41.074Z,49746.94
2022-09-15T01:53:13.124Z,49719.03
2022-09-15T01:55:56.317Z,49734.97
2022-09-15T01:58:23.153Z,49707.06
2022-09-15T02:01:14.049Z,49723.03
2022-09-15T02:03:55.520Z,49721.03
2022-09-15T02:06:40.703Z,49705.06
2022-09-15T02:09:20.728Z,49733.00
2022-09-15T02:12:02.618Z,49729.00
2022-09-15T02:15:05.458Z,49750.94
2022-09-15T02:17:38.191Z,49703.09
2022-09-15T02:20:16.114Z,49703.09
2022-09-15T02:22:49.032Z,49707.06
2022-09-15T02:25:20.516Z,49729.00
2022-09-15T02:27:52.485Z,49709.06
2022-09-15T02:30:20.284Z,49729.00
2022-09-15T02:33:01.172Z,49705.06
2022-09-15T02:35:32.644Z,49711.06
2022-09-15T02:38:00.152Z,49742.94
2022-09-15T02:40:28.304Z,49687.13
2022-09-15T02:42:57.599Z,49734.97
2022-09-15T02:45:25.499Z,49715.03
2022-09-15T02:47:52.156Z,49695.09
2022-09-15T02:50:20.413Z,49721.03
2022-09-15T02:52:47.042Z,49687.13
2022-09-15T02:55:13.704Z,49701.09
2022-09-15T02:57:40.331Z,49703.09
2022-09-15T03:00:14.751Z,49725.00
2022-09-15T03:02:50.269Z,49687.13
2022-09-15T03:05:18.892Z,49719.03
2022-09-15T03:07:45.545Z,49711.06
2022-09-15T03:10:13.138Z,49695.09
2022-09-15T03:12:41.479Z,49721.03
2022-09-15T03:15:11.010Z,49729.00
2022-09-15T03:17:39.433Z,49738.97
2022-09-15T03:20:07.981Z,49711.06
2022-09-15T03:22:35.324Z,49683.16
2022-09-15T03:25:02.276Z,49723.03
2022-09-15T03:27:28.960Z,49691.13
2022-09-15T03:29:55.639Z,49703.09
2022-09-15T03:32:22.331Z,49738.97
2022-09-15T03:34:48.909Z,49703.09
2022-09-15T03:37:16.167Z,49752.91
2022-09-15T03:39:42.827Z,49703.09
2022-09-15T03:42:09.452Z,49697.09
2022-09-15T03:44:36.105Z,49764.88
2022-09-15T03:47:03.512Z,49707.06
2022-09-15T03:49:30.185Z,49703.09
2022-09-15T03:51:57.310Z,49731.00
2022-09-15T03:54:23.920Z,49711.06
2022-09-15T03:56:51.943Z,49738.97
2022-09-15T03:59:20.496Z,49721.03
2022-09-15T04:01:48.526Z,49723.03
2022-09-15T04:04:15.543Z,49754.91
2022-09-15T04:06:42.205Z,49725.00
2022-09-15T04:09:08.816Z,49727.00
2022-09-15T04:11:35.425Z,49719.03
2022-09-15T04:14:02.339Z,49723.03
2022-09-15T04:16:29.239Z,49687.13
2022-09-15T04:18:56.521Z,49734.97
2022-09-15T04:21:25.823Z,49719.03
2022-09-15T04:23:53.347Z,49721.03
2022-09-15T04:26:31.504Z,49729.00
2022-09-15T04:29:03.635Z,49734.97
2022-09-15T04:31:32.291Z,49725.00
2022-09-15T04:33:59.373Z,49699.09
2022-09-15T04:36:28.258Z,49734.97
2022-09-15T04:38:55.425Z,49715.03
2022-09-15T04:41:22.775Z,49792.78
2022-09-15T04:43:49.807Z,49738.97
2022-09-15T04:46:18.436Z,49744.94
2022-09-15T04:48:46.217Z,49748.94
2022-09-15T04:51:15.879Z,49738.97
2022-09-15T04:53:42.562Z,49733.00
2022-09-15T04:56:12.304Z,49719.03
2022-09-15T04:58:43.323Z,49768.88
2022-09-15T05:01:11.972Z,49762.88
2022-09-15T05:03:39.280Z,49746.94
2022-09-15T05:06:07.834Z,49762.88
2022-09-15T05:08:34.492Z,49748.94
2022-09-15T05:11:07.197Z,49740.97
2022-09-15T05:13:34.498Z,49756.91
2022-09-15T05:16:13.037Z,49756.91
2022-09-15T05:18:40.996Z,49719.03
2022-09-15T05:21:09.632Z,49733.00
2022-09-15T05:23:37.575Z,49758.91
2022-09-15T05:26:05.446Z,49707.06
2022-09-15T05:28:32.925Z,49758.91
2022-09-15T05:30:59.950Z,49746.94
2022-09-15T05:33:26.642Z,49740.97
2022-09-15T05:35:55.194Z,49738.97
2022-09-15T05:38:22.032Z,49719.03
2022-09-15T05:40:48.966Z,49727.00
2022-09-15T05:43:16.699Z,49711.06
2022-09-15T05:45:43.371Z,49764.88
2022-09-15T05:48:11.778Z,49746.94
2022-09-15T05:50:39.569Z,49744.94
2022-09-15T05:53:07.541Z,49736.97
2022-09-15T05:55:37.155Z,49719.03
2022-09-15T05:58:04.226Z,49744.94
2022-09-15T06:00:30.964Z,49750.94
2022-09-15T06:02:57.594Z,49731.00
2022-09-15T06:05:24.300Z,49713.06
2022-09-15T06:07:54.617Z,49703.09
2022-09-15T06:10:25.041Z,49713.06
2022-09-15T06:12:55.389Z,49742.94
2022-09-15T06:15:23.599Z,49721.03
2022-09-15T06:17:50.783Z,49762.88
2022-09-15T06:20:21.423Z,49715.03
2022-09-15T06:22:48.125Z,49711.06
2022-09-15T06:25:15.338Z,49711.06
2022-09-15T06:27:42.505Z,49742.94
2022-09-15T06:30:10.328Z,49725.00
2022-09-15T06:32:37.071Z,49756.91
2022-09-15T06:35:07.465Z,49738.97
2022-09-15T06:37:35.100Z,49733.00
2022-09-15T06:40:02.627Z,49750.94
2022-09-15T06:42:29.345Z,49719.03
2022-09-15T06:44:56.565Z,49734.97
2022-09-15T06:47:23.375Z,49713.06
2022-09-15T06:49:50.071Z,49742.94
2022-09-15T06:52:16.822Z,49713.06
2022-09-15T06:54:43.415Z,49742.94
2022-09-15T06:57:10.010Z,49711.06
2022-09-15T06:59:36.623Z,49709.06
2022-09-15T07:02:05.275Z,49725.00
2022-09-15T07:04:34.241Z,49731.00
2022-09-15T07:07:00.854Z,49713.06
2022-09-15T07:09:27.451Z,49725.00
2022-09-15T07:11:54.031Z,49746.94
2022-09-15T07:14:20.627Z,49703.09
2022-09-15T07:16:47.244Z,49715.03
2022-09-15T07:19:14.051Z,49719.03
2022-09-15T07:21:40.684Z,49693.13
2022-09-15T07:24:07.812Z,49707.06
2022-09-15T07:26:34.909Z,49717.03
2022-09-15T07:29:04.927Z,49725.00
2022-09-15T07:31:33.669Z,49651.25
2022-09-15T07:34:01.134Z,49703.09
2022-09-15T07:36:28.401Z,49703.09
2022-09-15T07:38:55.123Z,49693.13
2022-09-15T07:41:25.877Z,49721.03
2022-09-15T07:43:54.567Z,49736.97
2022-09-15T07:46:22.623Z,49697.09
2022-09-15T07:48:50.341Z,49707.06
2022-09-15T07:51:17.540Z,49746.94
2022-09-15T07:53:46.105Z,49673.19
2022-09-15T07:56:13.177Z,49731.00
2022-09-15T07:58:40.192Z,49723.03
2022-09-15T08:01:11.245Z,49715.03
2022-09-15T08:03:42.852Z,49719.03
2022-09-15T08:06:11.420Z,49754.91
2022-09-15T08:08:39.447Z,49729.00
2022-09-15T08:11:16.366Z,49701.09
2022-09-15T08:13:49.569Z,49699.09
2022-09-15T08:16:19.530Z,49725.00
2022-09-15T08:18:46.767Z,49725.00
2022-09-15T08:21:17.461Z,49709.06
2022-09-15T08:23:44.604Z,49707.06
2022-09-15T08:26:14.470Z,49685.13
2022-09-15T08:28:42.011Z,49663.22
2022-09-15T08:31:11.361Z,49695.09
2022-09-15T08:33:43.182Z,49715.03
2022-09-15T08:36:11.799Z,49729.00
2022-09-15T08:38:40.682Z,49691.13
2022-09-15T08:41:35.626Z,49733.00
2022-09-15T08:44:21.035Z,49717.03
2022-09-15T08:47:12.223Z,49717.03
2022-09-15T08:50:05.199Z,49689.13
2022-09-15T08:52:53.827Z,49697.09
2022-09-15T08:55:26.583Z,49679.16
2022-09-15T08:57:54.077Z,49709.06
2022-09-15T09:00:20.774Z,49713.06
2022-09-15T09:03:18.257Z,49685.13
2022-09-15T09:05:53.086Z,49705.06
2022-09-15T09:08:28.564Z,49687.13
2022-09-15T09:10:58.235Z,49675.19
2022-09-15T09:13:39.733Z,49659.22
2022-09-15T09:16:44.964Z,49693.13
2022-09-15T09:19:32.187Z,49687.13
2022-09-15T09:22:06.615Z,49687.13
2022-09-15T09:24:50.036Z,49701.09
2022-09-15T09:27:21.626Z,49703.09
2022-09-15T09:29:52.122Z,49709.06
2022-09-15T09:32:46.293Z,49659.22
2022-09-15T09:35:22.635Z,49675.19
2022-09-15T09:37:51.034Z,49659.22
2022-09-15T09:40:18.533Z,49675.19
2022-09-15T09:42:45.974Z,49671.19
2022-09-15T09:45:18.618Z,49657.22
2022-09-15T09:47:46.453Z,49703.09
2022-09-15T09:50:51.474Z,49671.19
2022-09-15T09:53:33.394Z,49667.19
2022-09-15T09:56:11.875Z,49619.34
2022-09-15T09:58:38.783Z,49675.19
2022-09-15T10:01:17.146Z,49667.19
2022-09-15T10:03:45.230Z,49671.19
2022-09-15T10:06:22.605Z,49633.31
2022-09-15T10:08:55.989Z,49647.25
2022-09-15T10:11:39.879Z,49645.28
2022-09-15T10:14:06.982Z,49653.25
2022-09-15T10:16:33.696Z,49647.25
2022-09-15T10:19:00.527Z,49639.28
2022-09-15T10:21:27.193Z,49639.28
2022-09-15T10:23:54.162Z,49643.28
2022-09-15T10:26:32.031Z,49645.28
2022-09-15T10:29:12.805Z,49661.22
2022-09-15T10:31:40.321Z,49663.22
2022-09-15T10:34:39.259Z,49631.31
2022-09-15T10:37:20.718Z,49655.25
2022-09-15T10:39:56.002Z,49625.34
2022-09-15T10:42:33.128Z,49627.31
2022-09-15T10:45:17.174Z,49601.41
2022-09-15T10:48:22.393Z,49619.34
2022-09-15T10:51:00.721Z,49659.22
2022-09-15T10:54:09.034Z,49641.28
2022-09-15T10:56:46.816Z,49703.09
2022-09-15T10:59:49.435Z,49641.28
2022-09-15T11:02:48.081Z,49655.25
2022-09-15T11:05:33.267Z,49635.31
2022-09-15T11:08:37.279Z,49681.16
2022-09-15T11:11:39.165Z,49651.25
2022-09-15T11:14:39.608Z,49657.22
2022-09-15T11:17:15.092Z,49635.31
2022-09-15T11:20:11.092Z,49659.22
2022-09-15T11:22:53.956Z,49647.25
2022-09-15T11:25:24.829Z,49663.22
2022-09-15T11:28:02.288Z,49637.28
2022-09-15T11:30:37.894Z,49679.16
2022-09-15T11:33:23.092Z,49691.13
2022-09-15T11:35:55.312Z,49663.22
2022-09-15T11:38:42.820Z,49661.22
2022-09-15T11:41:17.442Z,49693.13
2022-09-15T11:43:59.022Z,49639.28
2022-09-15T11:46:47.149Z,49647.25
2022-09-15T11:49:18.886Z,49677.16
2022-09-15T11:51:55.076Z,49709.06
2022-09-15T11:54:31.488Z,49677.16
2022-09-15T11:56:59.597Z,49665.22
2022-09-15T11:59:39.131Z,49641.28
2022-09-15T12:02:15.721Z,49611.38
2022-09-15T12:05:12.060Z,49649.25
2022-09-15T12:07:55.105Z,49669.19
2022-09-15T12:10:28.956Z,49623.34
2022-09-15T12:12:56.492Z,49615.38
2022-09-15T12:15:29.420Z,49667.19
2022-09-15T12:17:55.996Z,49665.22
2022-09-15T12:20:32.242Z,49635.31
2022-09-15T12:23:32.886Z,49631.31
2022-09-15T12:26:05.619Z,49631.31
2022-09-15T12:28:42.701Z,49623.34
2022-09-15T12:31:39.931Z,49627.31
2022-09-15T12:34:24.676Z,49589.44
2022-09-15T12:36:55.945Z,49639.28
2022-09-15T12:39:47.322Z,49599.41
2022-09-15T12:42:31.268Z,49611.38
2022-09-15T12:45:04.824Z,49597.44
2022-09-15T12:47:49.091Z,49587.47
2022-09-15T12:50:15.679Z,49555.56
2022-09-15T12:53:16.064Z,49591.44
2022-09-15T12:56:11.644Z,49559.56
2022-09-15T12:58:49.349Z,49559.56
2022-09-15T13:01:19.313Z,49539.63
2022-09-15T13:03:46.283Z,49523.66
2022-09-15T13:06:21.499Z,49537.63
2022-09-15T13:08:49.876Z,49515.69
2022-09-15T13:11:36.948Z,49481.81
2022-09-15T13:14:03.732Z,49521.69
2022-09-15T13:16:34.896Z,49487.78
2022-09-15T13:19:20.584Z,49517.69
2022-09-15T13:22:12.707Z,49497.75
2022-09-15T13:25:02.002Z,49535.63
2022-09-15T13:27:51.801Z,49471.84
2022-09-15T13:30:21.523Z,49475.81
2022-09-15T13:39:33.946Z,49543.59
2022-09-15T13:42:19.158Z,49579.47
2022-09-15T13:44:59.435Z,49591.44
2022-09-15T13:47:31.889Z,49555.56
2022-09-15T13:50:13.187Z,49619.34
2022-09-15T13:52:48.500Z,49567.53
2022-09-15T13:55:16.594Z,49603.41
2022-09-15T14:00:53.876Z,49581.47
2022-09-15T14:03:38.900Z,49601.41
2022-09-15T14:06:19.460Z,49571.50
2022-09-15T14:08:51.266Z,49535.63
2022-09-15T14:11:27.126Z,49579.47
2022-09-15T14:13:55.513Z,49579.47
2022-09-15T14:16:34.445Z,49603.41
2022-09-15T14:19:03.945Z,49553.56
2022-09-15T14:21:33.118Z,49553.56
2022-09-15T14:24:06.430Z,49571.50
2022-09-15T14:26:35.947Z,49563.53
2022-09-15T14:29:05.796Z,49559.56
2022-09-15T14:31:35.732Z,49551.56
2022-09-15T14:34:06.692Z,49575.50
2022-09-15T14:36:34.487Z,49549.59
2022-09-15T14:39:19.341Z,49585.47
2022-09-15T14:41:46.836Z,49569.50
2022-09-15T14:47:28.727Z,49559.56
2022-09-15T14:50:17.169Z,49535.63
2022-09-15T14:52:48.565Z,49585.47
2022-09-15T14:55:44.137Z,49619.34
2022-09-15T14:58:36.320Z,49551.56
2022-09-15T15:01:24.997Z,49603.41
2022-09-15T15:04:00.631Z,49577.50
2022-09-15T15:06:37.288Z,49589.44
2022-09-15T15:09:09.711Z,49593.44
2022-09-15T15:11:38.987Z,49571.50
2022-09-15T15:14:09.254Z,49561.53
2022-09-15T15:16:36.107Z,49551.56
2022-09-15T15:19:03.227Z,49551.56
2022-09-15T15:21:38.236Z,49611.38
2022-09-15T15:24:09.343Z,49575.50
2022-09-15T15:26:38.276Z,49563.53
2022-09-15T15:29:09.140Z,49539.63
2022-09-15T15:31:40.295Z,49567.53
2022-09-15T15:34:24.632Z,49585.47
2022-09-15T15:36:51.291Z,49581.47
2022-09-15T15:39:24.958Z,49587.47
2022-09-15T15:42:02.525Z,49583.47
2022-09-15T15:44:30.805Z,49599.41
2022-09-15T15:47:03.715Z,49583.47
2022-09-15T15:49:32.635Z,49563.53
2022-09-15T15:52:01.686Z,49551.56
2022-09-15T15:54:28.525Z,49591.44
2022-09-15T15:56:55.649Z,49583.47
2022-09-15T15:59:22.515Z,49563.53
2022-09-15T16:01:53.167Z,49585.47
2022-09-15T16:04:19.880Z,49571.50
2022-09-15T16:06:47.007Z,49559.56
2022-09-15T16:09:15.050Z,49571.50
2022-09-15T16:11:42.945Z,49559.56
2022-09-15T16:14:13.468Z,49547.59
2022-09-15T16:16:40.805Z,49535.63
2022-09-15T16:19:08.477Z,49551.56
2022-09-15T16:21:39.511Z,49531.63
2022-09-15T16:24:11.221Z,49491.78
2022-09-15T16:26:39.375Z,49537.63
2022-09-15T16:29:06.017Z,49519.69
2022-09-15T16:31:33.359Z,49547.59
2022-09-15T16:34:00.420Z,49555.56
2022-09-15T16:36:27.673Z,49473.84
2022-09-15T16:38:54.362Z,49539.63
2022-09-15T16:41:23.466Z,49589.44
2022-09-15T16:43:50.089Z,49575.50
2022-09-15T16:46:17.349Z,49579.47
2022-09-15T16:48:47.049Z,49565.53
2022-09-15T16:51:25.229Z,49611.38
2022-09-15T16:53:55.295Z,49591.44
2022-09-15T16:56:22.266Z,49567.53
2022-09-15T16:58:48.854Z,49585.47
2022-09-15T17:01:21.608Z,49543.59
2022-09-15T17:03:48.734Z,49607.41
2022-09-15T17:06:17.753Z,49623.34
2022-09-15T17:08:45.400Z,49545.59
2022-09-15T17:11:16.642Z,49569.50
2022-09-15T17:13:44.563Z,49547.59
2022-09-15T17:16:13.754Z,49587.47
2022-09-15T17:18:40.923Z,49543.59
2022-09-15T17:21:10.808Z,49563.53
2022-09-15T17:23:39.154Z,49579.47
2022-09-15T17:26:10.948Z,49569.50
2022-09-15T17:28:37.611Z,49579.47
2022-09-15T17:31:12.420Z,49587.47
2022-09-15T17:33:39.433Z,49583.47
2022-09-15T17:36:06.261Z,49595.44
2022-09-15T17:38:32.875Z,49603.41
2022-09-15T17:40:59.542Z,49589.44
2022-09-15T17:43:28.566Z,49583.47
2022-09-15T17:45:55.663Z,49633.31
2022-09-15T17:48:23.275Z,49571.50
2022-09-15T17:50:50.443Z,49543.59
2022-09-15T17:53:22.744Z,49599.41
2022-09-15T17:55:54.690Z,49587.47
2022-09-15T17:58:23.121Z,49579.47
2022-09-15T18:00:50.233Z,49607.41
2022-09-15T18:03:19.739Z,49583.47
2022-09-15T18:05:46.699Z,49559.56
2022-09-15T18:08:13.316Z,49597.44
2022-09-15T18:10:39.931Z,49583.47
2022-09-15T18:13:07.166Z,49579.47
2022-09-15T18:15:35.042Z,49571.50
2022-09-15T18:18:08.423Z,49583.47
2022-09-15T18:20:36.813Z,49557.56
2022-09-15T18:23:03.430Z,49589.44
2022-09-15T18:25:35.119Z,49579.47
2022-09-15T18:28:02.943Z,49567.53
2022-09-15T18:30:31.029Z,49603.41
2022-09-15T18:32:58.804Z,49555.56
2022-09-15T18:35:26.015Z,49601.41
2022-09-15T18:37:58.005Z,49581.47
2022-09-15T18:40:26.075Z,49611.38
2022-09-15T18:42:53.117Z,49577.50
2022-09-15T18:45:20.399Z,49599.41
2022-09-15T18:47:49.057Z,49573.50
2022-09-15T18:50:18.316Z,49577.50
2022-09-15T18:52:45.029Z,49579.47
2022-09-15T18:55:15.898Z,49623.34
2022-09-15T18:57:43.237Z,49591.44
2022-09-15T19:00:16.595Z,49537.63
2022-09-15T19:02:43.942Z,49585.47
2022-09-15T19:05:12.369Z,49587.47
2022-09-15T19:07:39.145Z,49587.47
2022-09-15T19:10:10.775Z,49571.50
2022-09-15T19:12:38.337Z,49583.47
2022-09-15T19:15:10.664Z,49587.47
2022-09-15T19:17:38.546Z,49587.47
2022-09-15T19:20:06.822Z,49601.41
2022-09-15T19:22:34.240Z,49577.50
2022-09-15T19:25:01.382Z,49587.47
2022-09-15T19:27:28.342Z,49599.41
2022-09-15T19:29:55.252Z,49567.53
2022-09-15T19:32:22.267Z,49599.41
2022-09-15T19:34:49.337Z,49563.53
2022-09-15T19:37:19.145Z,49553.56
2022-09-15T19:39:46.931Z,49591.44
2022-09-15T19:44:47.798Z,49631.31
2022-09-15T19:47:14.516Z,49567.53
2022-09-15T19:49:41.147Z,49597.44
2022-09-15T19:52:07.915Z,49575.50
2022-09-15T19:54:34.994Z,49587.47
2022-09-15T19:57:02.198Z,49579.47
2022-09-15T19:59:31.683Z,49615.38
2022-09-15T20:02:00.058Z,49631.31
2022-09-15T20:04:27.476Z,49609.38
2022-09-15T20:06:54.154Z,49577.50
2022-09-15T20:09:20.851Z,49597.44
2022-09-15T20:11:47.619Z,49623.34
2022-09-15T20:14:14.796Z,49591.44
2022-09-15T20:16:41.550Z,49625.34
2022-09-15T20:19:08.390Z,49599.41
2022-09-15T20:21:52.282Z,49559.56
2022-09-15T20:24:20.265Z,49599.41
2022-09-15T20:26:46.947Z,49609.38
2022-09-15T20:29:13.877Z,49567.53
2022-09-15T20:31:40.933Z,49615.38
2022-09-15T20:34:07.645Z,49583.47
2022-09-15T20:36:36.771Z,49567.53
2022-09-15T20:39:07.834Z,49575.50
2022-09-15T20:41:35.057Z,49563.53
2022-09-15T20:44:02.062Z,49595.44
2022-09-15T20:46:31.597Z,49617.38
2022-09-15T20:48:58.311Z,49619.34
2022-09-15T20:51:27.954Z,49581.47
2022-09-15T20:53:56.357Z,49577.50
2022-09-15T20:56:25.724Z,49597.44
2022-09-15T20:58:59.881Z,49635.31
2022-09-15T21:01:29.138Z,49629.31
2022-09-15T21:03:56.015Z,49581.47
2022-09-15T21:06:26.584Z,49579.47
2022-09-15T21:08:54.886Z,49563.53
2022-09-15T21:11:23.332Z,49595.44
2022-09-15T21:13:50.507Z,49595.44
2022-09-15T21:16:20.532Z,49567.53
2022-09-15T21:18:48.250Z,49599.41
2022-09-15T21:21:35.438Z,49551.56
2022-09-15T21:24:06.138Z,49619.34
2022-09-15T21:26:57.364Z,49605.41
2022-09-15T21:29:24.091Z,49585.47
2022-09-15T21:31:50.907Z,49563.53
2022-09-15T21:34:17.538Z,49609.38
2022-09-15T21:36:44.137Z,49571.50
2022-09-15T21:39:10.736Z,49603.41
2022-09-15T21:41:37.382Z,49577.50
2022-09-15T21:44:04.002Z,49615.38
2022-09-15T21:46:31.384Z,49627.31
2022-09-15T21:48:59.779Z,49567.53
2022-09-15T21:51:28.942Z,49623.34
2022-09-15T21:53:57.784Z,49587.47
2022-09-15T21:56:25.684Z,49629.31
2022-09-15T21:58:52.201Z,49603.41
2022-09-15T22:01:27.943Z,49641.28
2022-09-15T22:03:54.695Z,49635.31
2022-09-15T22:06:30.076Z,49615.38
2022-09-15T22:08:56.912Z,49589.44
2022-09-15T22:11:23.874Z,49611.38
2022-09-15T22:13:50.580Z,49623.34
2022-09-15T22:16:20.292Z,49629.31
2022-09-15T22:18:47.583Z,49615.38
2022-09-15T22:21:15.828Z,49627.31
2022-09-15T22:23:44.256Z,49631.31
2022-09-15T22:26:13.200Z,49633.31
2022-09-15T22:28:40.188Z,49595.44
2022-09-15T22:31:10.357Z,49623.34
2022-09-15T22:33:38.545Z,49617.38
2022-09-15T22:36:06.262Z,49603.41
2022-09-15T22:38:32.908Z,49615.38
2022-09-15T22:41:09.033Z,49633.31
2022-09-15T22:43:36.803Z,49607.41
2022-09-15T22:46:04.108Z,49591.44
2022-09-15T22:48:31.052Z,49623.34
2022-09-15T22:50:58.428Z,49621.34
2022-09-15T22:53:26.124Z,49599.41
2022-09-15T22:56:06.798Z,49647.25
2022-09-15T22:58:34.602Z,49591.44
2022-09-15T23:01:13.370Z,49621.34
2022-09-15T23:03:40.444Z,49635.31
2022-09-15T23:06:07.784Z,49609.38
2022-09-15T23:08:34.696Z,49617.38
2022-09-15T23:11:12.882Z,49643.28
2022-09-15T23:13:40.672Z,49651.25
2022-09-15T23:16:09.521Z,49613.38
2022-09-15T23:18:36.578Z,49613.38
2022-09-15T23:21:08.732Z,49643.28
2022-09-15T23:23:37.370Z,49645.28
2022-09-15T23:26:06.606Z,49615.38
2022-09-15T23:28:34.146Z,49631.31
2022-09-15T23:31:01.028Z,49633.31
2022-09-15T23:33:29.444Z,49603.41
2022-09-15T23:35:59.386Z,49607.41
2022-09-15T23:38:26.052Z,49635.31
2022-09-15T23:40:52.693Z,49615.38
2022-09-15T23:43:19.570Z,49639.28
2022-09-15T23:45:46.818Z,49593.44
2022-09-15T23:48:14.311Z,49609.38
2022-09-15T23:50:41.600Z,49609.38
2022-09-15T23:53:09.228Z,49617.38
2022-09-15T23:55:36.300Z,49625.34
2022-09-15T23:58:04.364Z,49639.28
